Time;durP1;ratioP1;P1;durP2;ratioP2;P2;SDS_P1;SDS_P2;PMS_P1;PMS_P2;Temp;Humidity;BMP_temperature;BMP_pressure;BME280_temperature;BME280_humidity;BME280_pressure;Samples;Min_cycle;Max_cycle;Signal;HPM_P1;HPM_P2
2021/04/02 00:00:18;;;;;;;30.80;20.75;;;13.30;84.10;;;;;;5023112;28;20203;-66
2021/04/02 00:02:46;;;;;;;28.33;20.35;;;13.20;84.20;;;;;;5008808;28;20244;-67
2021/04/02 00:05:14;;;;;;;26.67;20.10;;;13.00;84.60;;;;;;5008218;28;20206;-66
2021/04/02 00:07:41;;;;;;;29.75;20.50;;;12.80;85.40;;;;;;5016707;28;20302;-67
2021/04/02 00:10:11;;;;;;;28.75;19.73;;;12.60;86.20;;;;;;5026732;28;20296;-67
2021/04/02 00:12:37;;;;;;;26.35;18.98;;;12.50;87.00;;;;;;5028291;28;20210;-67
2021/04/02 00:15:08;;;;;;;32.45;20.95;;;12.30;87.60;;;;;;5026999;28;20202;-66
2021/04/02 00:17:35;;;;;;;30.25;21.38;;;12.10;88.50;;;;;;5027972;28;20298;-66
2021/04/02 00:20:06;;;;;;;26.92;20.55;;;12.00;89.40;;;;;;5028241;28;20293;-66
2021/04/02 00:22:32;;;;;;;26.88;18.88;;;11.90;90.10;;;;;;5022078;28;20199;-67
2021/04/02 00:24:59;;;;;;;31.88;22.70;;;11.80;90.20;;;;;;5006958;28;20234;-67
2021/04/02 00:27:25;;;;;;;29.52;22.35;;;11.60;90.40;;;;;;5008154;28;20249;-66
2021/04/02 00:29:51;;;;;;;31.88;21.50;;;11.50;90.70;;;;;;5007981;28;20600;-67
2021/04/02 00:32:17;;;;;;;31.88;21.80;;;11.40;91.10;;;;;;5007986;28;20210;-66
2021/04/02 00:34:44;;;;;;;32.30;21.83;;;11.30;91.40;;;;;;5006412;28;20207;-66
2021/04/02 00:37:11;;;;;;;31.70;22.10;;;11.40;91.70;;;;;;5008189;28;20203;-66
2021/04/02 00:39:37;;;;;;;33.95;22.20;;;11.30;91.80;;;;;;5007281;28;20223;-66
2021/04/02 00:42:05;;;;;;;37.28;23.50;;;11.20;92.20;;;;;;5008226;28;20394;-67
2021/04/02 00:44:31;;;;;;;29.85;22.00;;;11.00;92.40;;;;;;5006644;28;20213;-66
2021/04/02 00:46:58;;;;;;;30.30;22.73;;;10.90;92.80;;;;;;5009344;28;20203;-66
2021/04/02 00:49:24;;;;;;;29.92;24.15;;;10.90;92.90;;;;;;5027508;28;20238;-67
2021/04/02 00:51:51;;;;;;;39.28;26.02;;;10.90;93.30;;;;;;5026869;28;20206;-66
2021/04/02 00:54:18;;;;;;;41.17;25.85;;;10.80;93.40;;;;;;5026569;28;20272;-67
2021/04/02 00:56:44;;;;;;;38.63;28.00;;;10.80;93.80;;;;;;5027270;28;20206;-66
2021/04/02 00:59:10;;;;;;;36.03;25.90;;;10.80;94.00;;;;;;5027424;28;20747;-66
2021/04/02 01:01:37;;;;;;;39.38;27.60;;;10.70;94.10;;;;;;5025128;28;20229;-66
2021/04/02 01:04:04;;;;;;;32.40;24.33;;;10.70;94.50;;;;;;5026496;28;20214;-67
2021/04/02 01:06:30;;;;;;;38.08;26.80;;;10.60;94.60;;;;;;5026334;28;20202;-66
2021/04/02 01:08:57;;;;;;;38.00;27.40;;;10.50;94.90;;;;;;5021062;28;20584;-67
2021/04/02 01:11:26;;;;;;;40.22;27.70;;;10.50;95.20;;;;;;5004876;28;20222;-66
2021/04/02 01:13:54;;;;;;;35.20;25.08;;;10.50;95.30;;;;;;5007676;28;20241;-67
2021/04/02 01:16:22;;;;;;;35.10;27.33;;;10.60;95.60;;;;;;5006627;28;20211;-67
2021/04/02 01:18:52;;;;;;;37.78;28.42;;;10.60;95.50;;;;;;5006942;28;20198;-67
2021/04/02 01:21:26;;;;;;;35.72;25.60;;;10.60;95.40;;;;;;5006960;28;20213;-66
2021/04/02 01:24:24;;;;;;;39.25;27.17;;;10.70;95.30;;;;;;5007151;28;20244;-67
2021/04/02 01:27:11;;;;;;;40.33;29.75;;;10.70;95.20;;;;;;5006901;28;20281;-66
2021/04/02 01:29:44;;;;;;;39.78;27.92;;;10.60;95.00;;;;;;5007003;28;20260;-66
2021/04/02 01:32:15;;;;;;;39.15;27.35;;;10.50;95.50;;;;;;5006971;28;20305;-66
2021/04/02 01:34:44;;;;;;;34.55;24.85;;;10.30;95.60;;;;;;5005585;28;20288;-66
2021/04/02 01:37:14;;;;;;;35.72;26.95;;;10.20;96.00;;;;;;5006720;28;20618;-66
2021/04/02 01:39:42;;;;;;;36.50;27.25;;;10.20;96.30;;;;;;5006944;28;20211;-67
2021/04/02 01:42:14;;;;;;;33.55;25.80;;;10.20;96.70;;;;;;5019853;28;20214;-66
2021/04/02 01:44:42;;;;;;;36.75;28.77;;;10.20;96.90;;;;;;5024864;28;20201;-66
2021/04/02 01:47:10;;;;;;;36.90;27.90;;;10.10;97.10;;;;;;5026876;28;20297;-66
2021/04/02 01:49:38;;;;;;;37.28;27.55;;;9.90;98.00;;;;;;5019995;28;20239;-67
2021/04/02 01:52:06;;;;;;;37.35;28.08;;;9.90;98.30;;;;;;5015642;28;20252;-66
2021/04/02 01:54:34;;;;;;;36.55;28.92;;;9.80;98.70;;;;;;5025368;28;20206;-67
2021/04/02 01:57:01;;;;;;;38.17;30.20;;;9.80;99.10;;;;;;5026666;28;20206;-66
2021/04/02 01:59:28;;;;;;;39.60;29.35;;;9.80;99.30;;;;;;5026793;28;20220;-67
2021/04/02 02:01:58;;;;;;;37.10;27.90;;;9.80;99.50;;;;;;5026191;28;20206;-67
2021/04/02 02:04:25;;;;;;;34.88;26.92;;;9.80;99.60;;;;;;5020784;28;20191;-67
2021/04/02 02:06:53;;;;;;;42.20;27.85;;;9.80;99.90;;;;;;5019919;28;20202;-67
2021/04/02 02:09:25;;;;;;;41.00;28.60;;;9.80;99.90;;;;;;5026349;28;20237;-67
2021/04/02 02:11:57;;;;;;;41.28;28.67;;;9.80;99.90;;;;;;5026564;28;20535;-66
2021/04/02 02:14:26;;;;;;;37.97;28.67;;;9.70;99.90;;;;;;5017965;28;20206;-66
2021/04/02 02:16:57;;;;;;;34.97;25.55;;;9.70;99.90;;;;;;5006768;28;20214;-66
2021/04/02 02:19:26;;;;;;;36.20;25.58;;;9.70;99.90;;;;;;5006575;28;20202;-66
2021/04/02 02:21:56;;;;;;;27.23;21.85;;;9.70;99.90;;;;;;5006551;28;20213;-66
2021/04/02 02:24:24;;;;;;;29.08;21.40;;;9.60;99.90;;;;;;5005960;28;20773;-66
2021/04/02 02:26:50;;;;;;;30.02;21.38;;;9.60;99.90;;;;;;5006793;28;20696;-66
2021/04/02 02:29:17;;;;;;;31.05;20.90;;;9.60;99.90;;;;;;5005832;28;20909;-66
2021/04/02 02:31:43;;;;;;;27.85;19.85;;;9.50;99.90;;;;;;5006560;28;20214;-66
2021/04/02 02:34:11;;;;;;;27.10;20.90;;;9.40;99.90;;;;;;5008771;28;20309;-66
2021/04/02 02:36:37;;;;;;;23.85;18.73;;;9.50;99.90;;;;;;5025628;28;20286;-66
2021/04/02 02:39:07;;;;;;;23.17;18.58;;;9.40;99.90;;;;;;5020679;28;20195;-66
2021/04/02 02:41:34;;;;;;;24.52;17.85;;;9.30;99.90;;;;;;5005188;28;20213;-66
2021/04/02 02:44:01;;;;;;;27.50;17.13;;;9.30;99.90;;;;;;5005881;28;20299;-67
2021/04/02 02:46:28;;;;;;;23.80;17.60;;;9.40;99.90;;;;;;5008101;28;20565;-66
2021/04/02 02:48:59;;;;;;;21.25;16.25;;;9.40;99.90;;;;;;5016976;28;20364;-66
2021/04/02 02:51:30;;;;;;;21.45;14.60;;;9.40;99.90;;;;;;5029546;28;20230;-66
2021/04/02 02:53:59;;;;;;;23.85;14.80;;;9.40;99.90;;;;;;5028671;28;20263;-66
2021/04/02 02:56:27;;;;;;;17.23;13.55;;;9.30;99.90;;;;;;5029191;28;20198;-66
2021/04/02 02:58:55;;;;;;;19.90;14.27;;;9.20;99.90;;;;;;5009702;28;20654;-67
2021/04/02 03:01:23;;;;;;;17.33;13.00;;;9.10;99.90;;;;;;5010349;28;20674;-66
2021/04/02 03:03:53;;;;;;;18.77;13.45;;;9.00;99.90;;;;;;5022528;28;20664;-67
2021/04/02 03:06:21;;;;;;;18.63;13.25;;;9.00;99.90;;;;;;5028872;28;20206;-66
2021/04/02 03:08:52;;;;;;;15.80;12.23;;;9.00;99.90;;;;;;5029582;28;20210;-66
2021/04/02 03:11:21;;;;;;;16.35;12.07;;;9.00;99.90;;;;;;5028684;28;20230;-67
2021/04/02 03:13:49;;;;;;;18.48;12.15;;;9.00;99.90;;;;;;5029216;28;20237;-66
2021/04/02 03:16:16;;;;;;;15.50;13.45;;;9.10;99.90;;;;;;5028876;28;20264;-66
2021/04/02 03:18:47;;;;;;;16.13;13.73;;;9.10;99.90;;;;;;5010712;28;20676;-66
2021/04/02 03:21:14;;;;;;;21.58;14.30;;;9.10;99.90;;;;;;5009666;28;20217;-66
2021/04/02 03:23:42;;;;;;;20.02;12.90;;;9.10;99.90;;;;;;5009163;28;20207;-66
2021/04/02 03:26:10;;;;;;;15.45;12.93;;;9.20;99.90;;;;;;5019962;28;20289;-66
2021/04/02 03:28:39;;;;;;;13.43;11.98;;;9.10;99.90;;;;;;5028898;28;20209;-66
2021/04/02 03:31:05;;;;;;;17.27;11.55;;;9.20;99.90;;;;;;5026987;28;20242;-66
2021/04/02 03:33:36;;;;;;;14.10;10.65;;;9.20;99.90;;;;;;5009403;28;20217;-66
2021/04/02 03:36:07;;;;;;;14.40;10.98;;;9.20;99.90;;;;;;5008768;28;20249;-66
2021/04/02 03:38:38;;;;;;;12.90;10.45;;;9.30;99.90;;;;;;5009226;28;20207;-66
2021/04/02 03:41:07;;;;;;;13.80;9.73;;;9.20;99.90;;;;;;5009541;28;20195;-66
2021/04/02 03:43:37;;;;;;;12.50;10.00;;;9.10;99.90;;;;;;5009007;28;20688;-66
2021/04/02 03:46:04;;;;;;;13.23;7.68;;;9.10;99.90;;;;;;5007730;28;20199;-66
2021/04/02 03:48:34;;;;;;;14.23;8.85;;;9.10;99.90;;;;;;5008607;28;20252;-66
2021/04/02 03:51:02;;;;;;;8.95;7.97;;;9.10;99.90;;;;;;5008897;28;20241;-66
2021/04/02 03:53:32;;;;;;;8.00;7.20;;;9.20;99.90;;;;;;5008209;28;20301;-66
2021/04/02 03:56:02;;;;;;;11.10;7.53;;;9.20;99.70;;;;;;5008229;28;20694;-66
2021/04/02 03:58:29;;;;;;;9.50;8.18;;;9.10;99.80;;;;;;5008270;28;20318;-66
2021/04/02 04:01:00;;;;;;;14.05;9.20;;;9.10;99.80;;;;;;5021598;28;20221;-66
2021/04/02 04:03:27;;;;;;;12.77;9.63;;;9.10;99.90;;;;;;5028226;28;20264;-65
2021/04/02 04:05:57;;;;;;;10.07;7.57;;;9.00;99.90;;;;;;5027713;28;20210;-66
2021/04/02 04:08:24;;;;;;;11.50;8.88;;;8.90;99.90;;;;;;5028709;28;20199;-66
2021/04/02 04:10:52;;;;;;;10.80;8.68;;;8.80;99.90;;;;;;5028166;28;20230;-66
2021/04/02 04:13:21;;;;;;;12.00;9.73;;;8.70;99.90;;;;;;5028251;28;20681;-66
2021/04/02 04:15:49;;;;;;;13.70;8.55;;;8.60;99.90;;;;;;5008604;28;20222;-66
2021/04/02 04:18:17;;;;;;;10.18;8.02;;;8.50;99.90;;;;;;5008494;28;20690;-66
2021/04/02 04:20:45;;;;;;;10.32;8.15;;;8.40;99.90;;;;;;5008374;28;20633;-66
2021/04/02 04:23:14;;;;;;;9.20;7.40;;;8.30;99.90;;;;;;5014258;28;20199;-66
2021/04/02 04:25:41;;;;;;;8.88;7.35;;;8.30;99.90;;;;;;5027142;28;20229;-66
2021/04/02 04:28:11;;;;;;;8.30;6.97;;;8.20;99.90;;;;;;5027276;28;20794;-66
2021/04/02 04:30:39;;;;;;;9.77;8.75;;;8.10;99.90;;;;;;5027937;28;20329;-66
2021/04/02 04:33:06;;;;;;;9.40;7.18;;;8.10;99.90;;;;;;5008562;28;20209;-66
2021/04/02 04:35:34;;;;;;;9.27;6.80;;;8.00;99.90;;;;;;5007306;28;20230;-66
2021/04/02 04:38:03;;;;;;;10.50;8.00;;;7.90;99.90;;;;;;5018251;28;20244;-66
2021/04/02 04:40:31;;;;;;;6.90;6.30;;;7.80;99.90;;;;;;5009654;28;20225;-66
2021/04/02 04:42:59;;;;;;;9.25;6.80;;;7.80;99.90;;;;;;5008519;28;20222;-66
2021/04/02 04:45:28;;;;;;;9.20;6.90;;;7.70;99.90;;;;;;5006889;28;20302;-66
2021/04/02 04:47:54;;;;;;;7.70;6.88;;;7.60;99.90;;;;;;5007315;28;20239;-66
2021/04/02 04:50:21;;;;;;;7.65;6.82;;;7.50;99.90;;;;;;5006844;28;20763;-66
2021/04/02 04:52:52;;;;;;;8.02;6.05;;;7.50;99.90;;;;;;5022567;28;20202;-66
2021/04/02 04:55:20;;;;;;;6.80;5.72;;;7.50;99.90;;;;;;5026631;28;20644;-66
2021/04/02 04:57:49;;;;;;;7.78;6.35;;;7.30;99.70;;;;;;5027338;28;20206;-66
2021/04/02 05:00:19;;;;;;;6.95;6.00;;;7.30;99.90;;;;;;5025059;28;20552;-66
2021/04/02 05:02:47;;;;;;;6.57;5.93;;;7.40;99.80;;;;;;5016034;28;20253;-66
2021/04/02 05:05:21;;;;;;;6.68;5.97;;;7.30;99.70;;;;;;5006620;28;20302;-66
2021/04/02 05:07:49;;;;;;;7.30;5.80;;;7.20;99.60;;;;;;5007369;28;20574;-66
2021/04/02 05:10:19;;;;;;;7.18;5.85;;;7.20;99.80;;;;;;5006727;28;20223;-66
2021/04/02 05:12:46;;;;;;;6.95;5.43;;;7.10;99.70;;;;;;5007463;28;20768;-66
2021/04/02 05:15:14;;;;;;;8.13;5.60;;;7.10;99.70;;;;;;5013450;28;20210;-66
2021/04/02 05:17:42;;;;;;;8.50;5.70;;;7.00;99.70;;;;;;5027174;28;20202;-66
2021/04/02 05:20:09;;;;;;;5.43;4.93;;;7.10;99.80;;;;;;5025321;28;20213;-66
2021/04/02 05:22:36;;;;;;;6.15;5.30;;;7.10;99.50;;;;;;5010034;28;20202;-66
2021/04/02 05:25:04;;;;;;;8.13;4.82;;;7.10;99.20;;;;;;5025877;28;20264;-66
2021/04/02 05:27:31;;;;;;;5.20;4.70;;;7.10;99.00;;;;;;5014479;28;20195;-66
2021/04/02 05:29:57;;;;;;;5.55;4.60;;;7.20;98.70;;;;;;5007201;28;20303;-66
2021/04/02 05:32:24;;;;;;;5.95;4.97;;;7.30;98.60;;;;;;5006732;28;20257;-66
2021/04/02 05:34:50;;;;;;;7.90;4.85;;;7.40;98.10;;;;;;5006490;28;20203;-66
2021/04/02 05:37:17;;;;;;;6.90;5.03;;;7.40;97.90;;;;;;5017253;28;20263;-66
2021/04/02 05:39:43;;;;;;;6.95;4.15;;;7.40;97.60;;;;;;5011611;28;20219;-66
2021/04/02 05:42:16;;;;;;;6.25;5.20;;;7.50;97.50;;;;;;5007008;28;20211;-66
2021/04/02 05:44:46;;;;;;;6.70;5.32;;;7.50;97.30;;;;;;5006239;28;20700;-66
2021/04/02 05:47:14;;;;;;;5.43;4.88;;;7.50;97.30;;;;;;5004870;28;20201;-66
2021/04/02 05:49:42;;;;;;;4.80;4.05;;;7.60;97.10;;;;;;5006817;28;20246;-67
2021/04/02 05:52:09;;;;;;;5.40;4.45;;;7.60;97.10;;;;;;5007399;28;20199;-67
2021/04/02 05:54:38;;;;;;;6.00;5.38;;;7.60;96.90;;;;;;5005817;28;20732;-67
2021/04/02 05:57:05;;;;;;;7.75;5.00;;;7.70;96.70;;;;;;5007039;28;20639;-67
2021/04/02 05:59:32;;;;;;;8.98;5.53;;;7.70;96.90;;;;;;5006369;28;20202;-67
2021/04/02 06:01:59;;;;;;;6.63;4.47;;;7.70;96.60;;;;;;5006179;28;20329;-67
2021/04/02 06:04:26;;;;;;;4.95;4.55;;;7.80;96.50;;;;;;5005849;28;20210;-67
2021/04/02 06:06:52;;;;;;;6.63;5.43;;;7.80;96.30;;;;;;5007149;28;20206;-67
2021/04/02 06:09:19;;;;;;;5.57;5.07;;;7.90;96.20;;;;;;5006636;28;20210;-67
2021/04/02 06:11:46;;;;;;;6.18;5.50;;;8.00;96.10;;;;;;5006545;28;20226;-67
2021/04/02 06:14:12;;;;;;;6.40;5.22;;;8.10;95.70;;;;;;5006635;28;20257;-68
2021/04/02 06:16:39;;;;;;;5.45;4.90;;;8.30;95.60;;;;;;5006637;28;20217;-67
2021/04/02 06:19:08;;;;;;;8.10;5.40;;;8.60;95.50;;;;;;5007227;28;20299;-67
2021/04/02 06:21:46;;;;;;;6.72;5.70;;;9.00;94.30;;;;;;5010339;28;20207;-68
2021/04/02 06:24:13;;;;;;;6.13;5.53;;;9.40;93.70;;;;;;5010945;28;20199;-67
2021/04/02 06:26:40;;;;;;;7.00;6.18;;;9.70;92.90;;;;;;5010482;28;20248;-67
2021/04/02 06:29:07;;;;;;;6.38;5.78;;;10.10;91.60;;;;;;5009820;28;20205;-68
2021/04/02 06:31:35;;;;;;;6.18;5.57;;;10.20;91.20;;;;;;5011015;28;20234;-68
2021/04/02 06:34:06;;;;;;;6.68;5.95;;;10.30;91.00;;;;;;5009790;28;20202;-68
2021/04/02 06:36:33;;;;;;;6.05;5.18;;;10.60;90.70;;;;;;5010801;28;20211;-68
2021/04/02 06:39:02;;;;;;;7.78;5.80;;;11.10;89.60;;;;;;5010670;28;20203;-67
2021/04/02 06:41:29;;;;;;;5.88;5.28;;;11.50;87.60;;;;;;5010606;28;20253;-68
2021/04/02 06:43:57;;;;;;;5.82;5.32;;;12.00;85.90;;;;;;5009971;28;20225;-67
2021/04/02 06:46:25;;;;;;;7.55;5.57;;;12.10;84.70;;;;;;5009993;28;20680;-67
2021/04/02 06:48:52;;;;;;;7.25;5.57;;;12.10;84.50;;;;;;5010789;28;20211;-68
2021/04/02 06:51:22;;;;;;;7.65;5.35;;;11.90;84.30;;;;;;5011158;28;20238;-67
2021/04/02 06:53:53;;;;;;;8.18;5.85;;;11.80;85.10;;;;;;5010368;28;20321;-69
2021/04/02 06:56:21;;;;;;;6.72;5.90;;;11.90;85.20;;;;;;5005320;28;20227;-68
2021/04/02 06:58:49;;;;;;;6.90;5.53;;;11.90;84.70;;;;;;5001680;28;20204;-68
2021/04/02 07:01:17;;;;;;;8.43;6.60;;;11.90;85.00;;;;;;5007809;28;20211;-68
2021/04/02 07:03:45;;;;;;;7.53;6.15;;;11.50;85.00;;;;;;5003652;28;20215;-68
2021/04/02 07:06:13;;;;;;;7.28;6.30;;;11.00;86.20;;;;;;5009290;28;20286;-68
2021/04/02 07:08:42;;;;;;;7.72;6.53;;;11.20;86.70;;;;;;5012614;28;20211;-68
2021/04/02 07:11:09;;;;;;;7.50;6.10;;;11.60;85.60;;;;;;5015672;28;20298;-67
2021/04/02 07:13:39;;;;;;;6.20;5.60;;;12.10;84.20;;;;;;5000524;28;20215;-67
2021/04/02 07:16:07;;;;;;;8.15;6.90;;;12.60;82.60;;;;;;5008712;28;20206;-67
2021/04/02 07:18:34;;;;;;;9.55;7.07;;;13.20;80.30;;;;;;5006210;28;20358;-67
2021/04/02 07:21:01;;;;;;;6.88;6.18;;;13.50;78.30;;;;;;5008917;28;20740;-68
2021/04/02 07:23:27;;;;;;;9.25;7.30;;;14.20;77.60;;;;;;5009831;28;20203;-67
2021/04/02 07:25:56;;;;;;;7.95;6.93;;;15.00;74.90;;;;;;4999863;28;20199;-67
2021/04/02 07:28:23;;;;;;;7.15;6.10;;;15.30;74.40;;;;;;5008354;28;20722;-67
2021/04/02 07:30:54;;;;;;;7.35;6.60;;;15.70;71.40;;;;;;5006352;28;20229;-68
2021/04/02 07:33:21;;;;;;;6.75;6.13;;;15.40;71.70;;;;;;5005587;28;20361;-68
2021/04/02 07:35:56;;;;;;;8.02;7.00;;;15.20;71.70;;;;;;5008095;28;20303;-67
2021/04/02 07:38:26;;;;;;;6.63;5.95;;;14.40;72.70;;;;;;5003190;28;20210;-67
2021/04/02 07:40:52;;;;;;;8.23;7.35;;;14.50;73.40;;;;;;5005021;28;20206;-67
2021/04/02 07:43:20;;;;;;;6.93;6.30;;;14.10;73.80;;;;;;5004340;28;20257;-67
2021/04/02 07:45:52;;;;;;;8.60;7.40;;;13.60;75.30;;;;;;5008350;28;20211;-67
2021/04/02 07:48:23;;;;;;;10.60;6.93;;;13.10;76.80;;;;;;5005420;28;20234;-67
2021/04/02 07:50:51;;;;;;;10.10;7.53;;;12.50;78.10;;;;;;4999229;28;20226;-67
2021/04/02 07:53:20;;;;;;;9.10;7.60;;;12.30;80.00;;;;;;5002083;28;20202;-67
2021/04/02 07:55:54;;;;;;;9.82;6.82;;;11.80;81.50;;;;;;5007182;28;20206;-67
2021/04/02 07:58:24;;;;;;;7.50;6.80;;;11.50;82.50;;;;;;4999799;28;20199;-68
2021/04/02 08:00:53;;;;;;;8.77;7.88;;;11.30;83.70;;;;;;5007675;28;20201;-67
2021/04/02 08:03:22;;;;;;;8.55;7.63;;;11.10;84.80;;;;;;5008432;28;20225;-67
2021/04/02 08:05:59;;;;;;;8.65;7.45;;;10.80;85.40;;;;;;5000533;28;20212;-67
2021/04/02 08:08:27;;;;;;;11.57;8.57;;;10.70;87.10;;;;;;5005600;28;20199;-67
2021/04/02 08:11:06;;;;;;;9.90;8.60;;;10.70;87.30;;;;;;5002088;28;20234;-67
2021/04/02 08:13:48;;;;;;;9.27;7.50;;;10.50;87.60;;;;;;5002644;28;20229;-67
2021/04/02 08:16:37;;;;;;;9.77;8.48;;;10.50;88.20;;;;;;5002781;28;20205;-68
2021/04/02 08:19:05;;;;;;;9.68;8.52;;;10.60;87.80;;;;;;5005022;28;20207;-69
2021/04/02 08:21:32;;;;;;;10.30;8.35;;;10.60;88.30;;;;;;5003977;28;20203;-68
2021/04/02 08:23:59;;;;;;;10.38;8.40;;;10.60;88.90;;;;;;5000289;28;20211;-68
2021/04/02 08:26:30;;;;;;;12.52;8.95;;;10.50;88.30;;;;;;4994358;28;20244;-67
2021/04/02 08:28:58;;;;;;;11.43;9.02;;;10.70;89.20;;;;;;4998796;28;20671;-68
2021/04/02 08:31:24;;;;;;;9.25;8.00;;;10.70;88.90;;;;;;5006113;28;20234;-68
2021/04/02 08:33:52;;;;;;;12.85;9.13;;;10.70;88.30;;;;;;5005816;28;20676;-68
2021/04/02 08:36:19;;;;;;;10.77;8.82;;;10.80;88.60;;;;;;5006851;28;20612;-67
2021/04/02 08:38:47;;;;;;;9.65;8.65;;;10.80;88.30;;;;;;5007801;28;20668;-68
2021/04/02 08:41:18;;;;;;;9.95;8.95;;;10.80;87.90;;;;;;4999595;28;20249;-67
2021/04/02 08:43:44;;;;;;;12.35;10.20;;;10.80;89.00;;;;;;5003550;28;20207;-66
2021/04/02 08:46:14;;;;;;;13.05;8.65;;;10.80;88.40;;;;;;5006944;28;20282;-68
2021/04/02 08:48:40;;;;;;;9.63;7.90;;;10.80;88.50;;;;;;5005312;28;20242;-68
2021/04/02 08:51:06;;;;;;;9.88;8.80;;;11.00;88.80;;;;;;5002749;28;20636;-68
2021/04/02 08:53:40;;;;;;;11.25;9.10;;;11.00;88.50;;;;;;5005548;28;20556;-68
2021/04/02 08:56:07;;;;;;;10.27;8.68;;;10.90;88.00;;;;;;4999080;28;20195;-68
2021/04/02 08:58:34;;;;;;;11.25;8.98;;;11.10;89.20;;;;;;5005949;28;20679;-67
2021/04/02 09:01:01;;;;;;;10.90;9.60;;;11.20;88.90;;;;;;5004972;28;20261;-68
2021/04/02 09:03:28;;;;;;;11.45;8.68;;;11.30;88.00;;;;;;5001213;28;20571;-68
2021/04/02 09:05:55;;;;;;;11.10;9.55;;;11.50;88.30;;;;;;5004799;28;20695;-68
2021/04/02 09:08:22;;;;;;;12.25;9.55;;;11.60;87.20;;;;;;5002488;28;20605;-67
2021/04/02 09:10:48;;;;;;;10.10;8.52;;;11.70;87.40;;;;;;5007965;28;21821;-69
2021/04/02 09:13:14;;;;;;;11.18;9.90;;;12.10;87.30;;;;;;5008466;28;20211;-68
2021/04/02 09:15:46;;;;;;;11.43;9.77;;;12.40;86.30;;;;;;5007998;28;20298;-68
2021/04/02 09:18:16;;;;;;;11.75;9.82;;;12.50;84.70;;;;;;5006225;28;20215;-68
2021/04/02 09:20:44;;;;;;;13.93;8.95;;;12.70;84.00;;;;;;5006679;28;20246;-68
2021/04/02 09:23:11;;;;;;;11.48;9.45;;;13.30;82.50;;;;;;5001474;28;20286;-68
2021/04/02 09:25:39;;;;;;;11.70;9.00;;;14.20;80.10;;;;;;5007805;28;20210;-68
2021/04/02 09:28:06;;;;;;;11.30;10.20;;;15.00;75.30;;;;;;5006414;28;20282;-68
2021/04/02 09:30:32;;;;;;;15.60;14.00;;;15.10;76.30;;;;;;5003779;28;20239;-68
2021/04/02 09:32:59;;;;;;;10.80;9.70;;;15.10;76.30;;;;;;5003578;28;20294;-68
2021/04/02 09:35:26;;;;;;;12.10;10.32;;;15.30;75.10;;;;;;5005901;28;20294;-68
2021/04/02 09:37:54;;;;;;;12.23;10.95;;;16.00;73.20;;;;;;5001306;28;20281;-69
2021/04/02 09:40:27;;;;;;;10.77;9.73;;;16.40;72.80;;;;;;5004001;28;20290;-68
2021/04/02 09:42:53;;;;;;;10.90;9.13;;;15.60;72.00;;;;;;4999259;28;20817;-68
2021/04/02 09:45:20;;;;;;;14.27;11.30;;;15.80;74.00;;;;;;5000653;28;20207;-68
2021/04/02 09:47:47;;;;;;;11.40;10.30;;;16.60;73.80;;;;;;5006159;28;20222;-69
2021/04/02 09:50:15;;;;;;;11.55;10.35;;;17.70;70.40;;;;;;5008011;28;20322;-69
2021/04/02 09:52:43;;;;;;;10.80;9.70;;;17.60;67.90;;;;;;5007058;28;20229;-68
2021/04/02 09:55:12;;;;;;;10.23;9.10;;;16.00;67.60;;;;;;5003103;28;20269;-68
2021/04/02 09:57:38;;;;;;;11.30;9.98;;;15.10;70.60;;;;;;5006929;28;20211;-68
2021/04/02 10:00:07;;;;;;;10.80;9.52;;;14.50;71.80;;;;;;5003216;28;20199;-68
2021/04/02 10:02:34;;;;;;;10.18;9.18;;;13.70;73.40;;;;;;5005836;28;20222;-68
2021/04/02 10:05:00;;;;;;;11.70;9.80;;;14.10;73.40;;;;;;4999896;28;20195;-67
2021/04/02 10:07:26;;;;;;;11.10;9.73;;;14.70;73.50;;;;;;5005695;28;20210;-69
2021/04/02 10:09:52;;;;;;;11.50;10.40;;;15.00;74.30;;;;;;5006052;28;20199;-67
2021/04/02 10:12:20;;;;;;;11.30;9.30;;;14.40;72.70;;;;;;4998655;28;20206;-67
2021/04/02 10:14:48;;;;;;;10.00;8.90;;;14.10;74.00;;;;;;5000453;28;20210;-67
2021/04/02 10:17:14;;;;;;;10.50;9.38;;;14.40;74.60;;;;;;5004068;28;20214;-68
2021/04/02 10:19:41;;;;;;;10.63;9.52;;;15.20;71.30;;;;;;5004302;28;20211;-68
2021/04/02 10:22:07;;;;;;;13.20;10.52;;;15.40;70.50;;;;;;5005675;28;20239;-68
2021/04/02 10:24:34;;;;;;;12.90;9.20;;;15.60;71.90;;;;;;5003821;28;20210;-68
2021/04/02 10:27:00;;;;;;;10.52;9.43;;;15.80;70.90;;;;;;5006363;28;20231;-68
2021/04/02 10:29:28;;;;;;;11.27;9.73;;;16.00;68.40;;;;;;5004076;28;20199;-68
2021/04/02 10:31:55;;;;;;;11.35;9.88;;;16.40;67.60;;;;;;4996000;28;20280;-68
2021/04/02 10:34:24;;;;;;;10.27;9.05;;;16.20;66.50;;;;;;4997367;28;20847;-68
2021/04/02 10:36:50;;;;;;;12.40;9.93;;;16.00;70.30;;;;;;5002957;28;20210;-68
2021/04/02 10:39:16;;;;;;;11.35;10.25;;;16.00;66.40;;;;;;5002169;28;20203;-67
2021/04/02 10:41:43;;;;;;;10.75;9.55;;;16.00;65.30;;;;;;5001952;28;20338;-68
2021/04/02 10:44:09;;;;;;;9.98;8.57;;;15.50;69.20;;;;;;5004634;28;20296;-69
2021/04/02 10:46:37;;;;;;;11.05;8.48;;;15.60;66.00;;;;;;5005508;28;20614;-68
2021/04/02 10:49:04;;;;;;;9.98;8.98;;;15.60;63.90;;;;;;5004847;28;20207;-68
2021/04/02 10:51:30;;;;;;;10.60;9.40;;;15.30;64.90;;;;;;5003533;28;20229;-68
2021/04/02 10:54:01;;;;;;;10.55;9.32;;;15.40;69.40;;;;;;5004642;28;20210;-68
2021/04/02 10:56:28;;;;;;;9.93;8.93;;;15.90;70.80;;;;;;5001061;28;20238;-68
2021/04/02 10:58:55;;;;;;;11.40;10.25;;;16.20;69.90;;;;;;4999920;28;20203;-68
2021/04/02 11:01:21;;;;;;;11.00;9.85;;;16.00;65.70;;;;;;4999971;28;20208;-68
2021/04/02 11:03:49;;;;;;;10.30;9.27;;;15.20;67.70;;;;;;5000432;28;20231;-68
2021/04/02 11:06:15;;;;;;;19.08;10.68;;;14.80;69.10;;;;;;5005051;28;20623;-68
2021/04/02 11:08:41;;;;;;;11.18;8.95;;;14.60;72.70;;;;;;5001526;28;20211;-68
2021/04/02 11:11:08;;;;;;;11.85;10.38;;;14.90;73.90;;;;;;5003602;28;20262;-67
2021/04/02 11:13:34;;;;;;;11.73;9.10;;;14.90;72.40;;;;;;5006497;28;20582;-66
2021/04/02 11:16:01;;;;;;;11.45;8.15;;;15.00;69.20;;;;;;5002109;28;20260;-66
2021/04/02 11:18:27;;;;;;;11.93;9.68;;;15.10;71.30;;;;;;5003878;28;20229;-66
2021/04/02 11:20:54;;;;;;;10.70;9.60;;;15.10;70.20;;;;;;5005460;28;20203;-66
2021/04/02 11:23:20;;;;;;;10.88;8.95;;;14.90;70.70;;;;;;5008352;28;20207;-66
2021/04/02 11:25:47;;;;;;;10.38;9.27;;;14.20;70.90;;;;;;5007674;28;20290;-66
2021/04/02 11:28:14;;;;;;;12.10;8.95;;;14.00;73.10;;;;;;5008546;28;20301;-66
2021/04/02 11:30:40;;;;;;;10.68;9.55;;;14.20;74.20;;;;;;5005834;28;20219;-66
2021/04/02 11:33:07;;;;;;;10.60;9.50;;;14.40;71.20;;;;;;5007996;28;20200;-66
2021/04/02 11:35:33;;;;;;;11.35;9.32;;;14.60;71.20;;;;;;5007938;28;20195;-67
2021/04/02 11:38:01;;;;;;;15.15;9.05;;;14.80;73.50;;;;;;5014307;28;20203;-67
2021/04/02 11:40:28;;;;;;;10.57;9.48;;;15.10;72.20;;;;;;5007957;28;20215;-67
2021/04/02 11:42:54;;;;;;;13.18;8.98;;;15.10;72.20;;;;;;5000803;28;20204;-66
2021/04/02 11:45:21;;;;;;;10.45;8.30;;;15.00;70.90;;;;;;5006335;28;20325;-67
2021/04/02 11:47:48;;;;;;;11.60;9.45;;;14.90;69.00;;;;;;5008378;28;20215;-67
2021/04/02 11:50:15;;;;;;;9.48;8.48;;;14.90;72.20;;;;;;5007223;28;20207;-68
2021/04/02 11:52:41;;;;;;;11.27;8.90;;;15.00;71.00;;;;;;5002430;28;20203;-67
2021/04/02 11:55:10;;;;;;;9.27;8.38;;;15.10;70.90;;;;;;5003959;28;20206;-67
2021/04/02 11:57:37;;;;;;;13.07;9.07;;;15.00;70.60;;;;;;5007875;28;20626;-67
2021/04/02 12:00:06;;;;;;;9.10;7.68;;;15.10;69.10;;;;;;5004359;28;20207;-66
2021/04/02 12:02:33;;;;;;;12.15;9.45;;;14.90;69.50;;;;;;5003855;28;20206;-67
2021/04/02 12:04:59;;;;;;;10.32;8.73;;;14.90;70.90;;;;;;5004680;28;20695;-68
2021/04/02 12:07:25;;;;;;;8.93;8.13;;;14.60;67.80;;;;;;5003855;28;20344;-68
2021/04/02 12:09:51;;;;;;;9.23;8.13;;;14.60;70.40;;;;;;5007565;28;20302;-68
2021/04/02 12:12:19;;;;;;;8.68;7.60;;;14.60;70.80;;;;;;5007420;28;20238;-68
2021/04/02 12:14:45;;;;;;;10.35;8.32;;;14.60;70.60;;;;;;5004516;28;20211;-68
2021/04/02 12:17:11;;;;;;;8.88;7.60;;;14.30;67.30;;;;;;5007914;28;20195;-67
2021/04/02 12:19:38;;;;;;;7.18;6.57;;;14.20;71.10;;;;;;5006040;28;20661;-67
2021/04/02 12:22:05;;;;;;;8.85;7.60;;;14.40;70.70;;;;;;5002852;28;20209;-68
2021/04/02 12:24:31;;;;;;;7.93;7.10;;;14.40;69.30;;;;;;5006596;28;20584;-68
2021/04/02 12:26:58;;;;;;;7.88;6.88;;;14.50;69.60;;;;;;5007245;28;20241;-68
2021/04/02 12:29:25;;;;;;;8.30;7.40;;;14.50;68.40;;;;;;5006699;28;20199;-67
2021/04/02 12:31:51;;;;;;;7.45;6.72;;;14.50;67.60;;;;;;5003951;28;20389;-67
2021/04/02 12:34:18;;;;;;;7.72;6.32;;;14.60;67.00;;;;;;5001250;28;20207;-68
2021/04/02 12:36:44;;;;;;;7.05;6.32;;;14.80;68.50;;;;;;4999980;28;20306;-67
2021/04/02 12:39:10;;;;;;;8.35;7.47;;;14.70;65.70;;;;;;5000311;28;20206;-68
2021/04/02 12:41:37;;;;;;;7.05;6.45;;;14.80;66.90;;;;;;5006198;28;20207;-68
2021/04/02 12:44:03;;;;;;;7.85;7.15;;;14.70;66.40;;;;;;5005968;28;20214;-67